createdAt,value
2023-02-27T00:03:58.728Z,-2.53
2023-02-27T00:09:01.732Z,-2.41
2023-02-27T00:14:04.658Z,-2.49
2023-02-27T00:19:08.972Z,-2.49
2023-02-27T00:24:12.154Z,-2.35
2023-02-27T00:29:15.058Z,-2.36
2023-02-27T00:34:19.319Z,-2.37
2023-02-27T00:39:22.291Z,-2.47
2023-02-27T00:44:25.206Z,-2.51
2023-02-27T00:49:29.426Z,-2.47
2023-02-27T00:54:32.377Z,-2.60
2023-02-27T00:59:35.322Z,-2.53
2023-02-27T01:04:39.632Z,-2.38
2023-02-27T01:09:43.348Z,-2.67
2023-02-27T01:14:46.320Z,-2.81
2023-02-27T01:19:50.604Z,-2.92
2023-02-27T01:24:53.588Z,-2.90
2023-02-27T01:29:56.540Z,-2.88
2023-02-27T01:35:00.806Z,-3.04
2023-02-27T01:40:05.040Z,-3.28
2023-02-27T01:45:28.519Z,-3.29
2023-02-27T01:50:34.706Z,-3.18
2023-02-27T01:55:40.225Z,-3.25
2023-02-27T02:00:43.473Z,-3.07
2023-02-27T02:05:48.670Z,-3.45
2023-02-27T02:10:53.046Z,-3.29
2023-02-27T02:16:20.154Z,-3.10
2023-02-27T02:21:54.462Z,-3.24
2023-02-27T02:27:10.774Z,-3.27
2023-02-27T02:32:43.656Z,-3.48
2023-02-27T02:38:30.230Z,-3.43
2023-02-27T02:43:42.391Z,-3.28
2023-02-27T02:48:50.358Z,-3.16
2023-02-27T02:54:01.041Z,-3.09
2023-02-27T02:59:10.899Z,-2.93
2023-02-27T03:04:19.700Z,-2.89
2023-02-27T03:09:30.156Z,-2.91
2023-02-27T03:14:40.447Z,-3.55
2023-02-27T03:19:51.405Z,-3.86
2023-02-27T03:24:58.342Z,-3.12
2023-02-27T03:30:08.933Z,-2.87
2023-02-27T03:35:12.833Z,-3.20
2023-02-27T03:40:26.672Z,-3.25
2023-02-27T03:45:37.529Z,-3.14
2023-02-27T03:50:40.547Z,-3.13
2023-02-27T03:55:46.974Z,-2.90
2023-02-27T04:00:51.361Z,-2.67
2023-02-27T04:05:54.616Z,-2.77
2023-02-27T04:11:16.749Z,-2.60
2023-02-27T04:16:47.076Z,-2.48
2023-02-27T04:22:04.249Z,-2.51
2023-02-27T04:27:16.099Z,-2.42
2023-02-27T04:32:27.224Z,-2.31
2023-02-27T04:37:36.772Z,-2.20
2023-02-27T04:42:43.108Z,-2.97
2023-02-27T04:47:50.723Z,-2.60
2023-02-27T04:52:58.461Z,-2.39
2023-02-27T04:58:05.685Z,-3.02
2023-02-27T05:03:14.547Z,-2.80
2023-02-27T05:08:25.091Z,-2.93
2023-02-27T05:13:33.224Z,-2.52
2023-02-27T05:18:37.990Z,-3.26
2023-02-27T05:23:45.996Z,-2.64
2023-02-27T05:28:55.186Z,-2.66
2023-02-27T05:34:07.538Z,-2.86
2023-02-27T05:39:12.386Z,-2.50
2023-02-27T05:44:18.390Z,-2.39
2023-02-27T05:49:27.195Z,-2.26
2023-02-27T05:54:37.258Z,-2.20
2023-02-27T05:59:45.190Z,-2.11
2023-02-27T06:04:49.464Z,-2.03
2023-02-27T06:09:52.880Z,-2.15
2023-02-27T06:14:55.719Z,-2.34
2023-02-27T06:19:59.925Z,-2.01
2023-02-27T06:25:03.048Z,-1.82
2023-02-27T06:30:07.856Z,-1.65
2023-02-27T06:35:12.746Z,-1.84
2023-02-27T06:40:16.054Z,-1.40
2023-02-27T06:45:19.073Z,-0.91
2023-02-27T06:50:23.368Z,-1.24
2023-02-27T06:55:26.694Z,-1.20
2023-02-27T07:00:30.516Z,-1.16
2023-02-27T07:05:34.951Z,-1.45
2023-02-27T07:10:38.948Z,-1.49
2023-02-27T07:15:42.007Z,-1.48
2023-02-27T07:20:46.260Z,-0.75
2023-02-27T07:25:49.200Z,-0.38
2023-02-27T07:30:54.856Z,-0.17
2023-02-27T07:35:59.128Z,-0.08
2023-02-27T07:41:02.082Z,-0.16
2023-02-27T07:46:05.306Z,-0.13
2023-02-27T07:51:09.569Z,0.53
2023-02-27T07:56:12.504Z,0.61
2023-02-27T08:01:15.378Z,0.94
2023-02-27T08:06:19.650Z,0.50
2023-02-27T08:11:22.686Z,0.69
2023-02-27T08:16:26.162Z,1.04
2023-02-27T08:21:31.153Z,0.22
2023-02-27T08:26:34.357Z,0.68
2023-02-27T08:31:37.271Z,1.19
2023-02-27T08:36:41.848Z,1.42
2023-02-27T08:41:44.792Z,1.30
2023-02-27T08:46:47.901Z,1.48
2023-02-27T08:51:52.230Z,1.78
2023-02-27T08:56:55.132Z,1.76
2023-02-27T09:01:59.076Z,1.12
2023-02-27T09:07:03.563Z,1.46
2023-02-27T09:12:07.024Z,0.84
2023-02-27T09:17:09.931Z,1.77
2023-02-27T09:22:14.234Z,2.47
2023-02-27T09:27:17.303Z,2.13
2023-02-27T09:32:20.313Z,1.33
2023-02-27T09:37:25.289Z,1.12
2023-02-27T09:42:34.926Z,0.91
2023-02-27T09:47:41.756Z,0.40
2023-02-27T09:52:46.267Z,0.61
2023-02-27T09:57:56.301Z,1.40
2023-02-27T10:03:08.616Z,1.95
2023-02-27T10:08:22.530Z,2.40
2023-02-27T10:13:52.366Z,1.74
2023-02-27T10:18:59.410Z,1.19
2023-02-27T10:24:13.027Z,1.18
2023-02-27T10:29:20.364Z,1.31
2023-02-27T10:34:25.557Z,2.04
2023-02-27T10:39:31.747Z,1.49
2023-02-27T10:44:34.750Z,0.83
2023-02-27T10:49:39.574Z,2.17
2023-02-27T10:54:44.134Z,1.87
2023-02-27T10:59:53.906Z,1.22
2023-02-27T11:04:59.849Z,0.90
2023-02-27T11:10:17.286Z,0.61
2023-02-27T11:15:25.688Z,0.70
2023-02-27T11:20:36.902Z,0.66
2023-02-27T11:25:41.609Z,1.11
2023-02-27T11:30:44.742Z,1.67
2023-02-27T11:35:57.218Z,1.31
2023-02-27T11:41:04.290Z,2.25
2023-02-27T11:46:31.524Z,1.29
2023-02-27T11:51:47.026Z,1.40
2023-02-27T11:56:54.928Z,2.08
2023-02-27T12:02:04.858Z,2.94
2023-02-27T12:07:16.593Z,2.47
2023-02-27T12:12:24.987Z,2.95
2023-02-27T12:17:33.131Z,3.72
2023-02-27T12:22:38.970Z,3.04
2023-02-27T12:27:48.108Z,3.32
2023-02-27T12:32:55.749Z,3.63
2023-02-27T12:37:59.032Z,2.11
2023-02-27T12:43:26.823Z,2.54
2023-02-27T12:48:46.442Z,3.20
2023-02-27T12:54:06.666Z,3.11
2023-02-27T12:59:24.898Z,3.24
2023-02-27T13:04:37.561Z,2.88
2023-02-27T13:09:46.505Z,1.78
2023-02-27T13:14:58.785Z,1.68
2023-02-27T13:20:06.210Z,1.79
2023-02-27T13:25:14.317Z,1.79
2023-02-27T13:30:25.029Z,1.77
2023-02-27T13:35:36.307Z,2.21
2023-02-27T13:40:41.474Z,2.96
2023-02-27T13:45:57.913Z,1.63
2023-02-27T13:51:02.187Z,2.29
2023-02-27T13:56:23.222Z,1.84
2023-02-27T14:01:29.676Z,2.38
2023-02-27T14:06:33.046Z,2.70
2023-02-27T14:11:39.842Z,2.61
2023-02-27T14:17:03.523Z,2.17
2023-02-27T14:22:40.189Z,1.79
2023-02-27T14:27:50.456Z,1.72
2023-02-27T14:32:59.019Z,2.18
2023-02-27T14:38:09.314Z,2.37
2023-02-27T14:43:22.972Z,2.20
2023-02-27T14:48:29.785Z,2.11
2023-02-27T14:53:33.038Z,2.39
2023-02-27T14:58:36.056Z,2.63
2023-02-27T15:03:46.097Z,2.64
2023-02-27T15:08:52.214Z,2.51
2023-02-27T15:13:59.331Z,2.64
2023-02-27T15:19:14.220Z,2.45
2023-02-27T15:24:26.918Z,2.36
2023-02-27T15:29:35.850Z,2.29
2023-02-27T15:34:45.009Z,2.34
2023-02-27T15:39:48.205Z,2.11
2023-02-27T15:44:52.988Z,1.75
2023-02-27T15:50:01.174Z,1.43
2023-02-27T15:55:07.634Z,1.10
2023-02-27T16:00:12.254Z,0.98
2023-02-27T16:05:22.620Z,0.90
2023-02-27T16:10:29.113Z,0.76
2023-02-27T16:15:34.664Z,1.11
2023-02-27T16:20:42.193Z,0.88
2023-02-27T16:26:03.181Z,0.57
2023-02-27T16:31:08.006Z,0.55
2023-02-27T16:36:23.248Z,0.68
2023-02-27T16:41:26.543Z,0.99
2023-02-27T16:46:31.137Z,0.84
2023-02-27T16:51:36.149Z,0.89
2023-02-27T16:56:39.437Z,0.87
2023-02-27T17:01:42.840Z,1.09
2023-02-27T17:06:47.177Z,1.12
2023-02-27T17:11:51.246Z,1.15
2023-02-27T17:16:54.248Z,0.93
2023-02-27T17:21:58.643Z,1.21
2023-02-27T17:27:01.729Z,1.30
2023-02-27T17:32:05.118Z,1.24
2023-02-27T17:37:09.614Z,1.44
2023-02-27T17:42:16.548Z,1.38
2023-02-27T17:47:19.648Z,1.32
2023-02-27T17:52:24.084Z,1.38
2023-02-27T17:57:27.118Z,1.34
2023-02-27T18:02:30.159Z,1.45
2023-02-27T18:07:34.661Z,1.40
2023-02-27T18:12:38.358Z,1.38
2023-02-27T18:17:41.677Z,1.32
2023-02-27T18:22:45.950Z,1.46
2023-02-27T18:27:49.023Z,1.43
2023-02-27T18:32:51.956Z,1.42
2023-02-27T18:37:56.261Z,1.45
2023-02-27T18:42:59.210Z,1.44
2023-02-27T18:48:02.231Z,1.42
2023-02-27T18:53:06.548Z,1.42
2023-02-27T18:58:09.481Z,1.42
2023-02-27T19:03:12.502Z,1.40
2023-02-27T19:08:17.507Z,1.32
2023-02-27T19:13:20.416Z,1.25
2023-02-27T19:18:23.310Z,1.26
2023-02-27T19:23:27.595Z,1.09
2023-02-27T19:28:30.675Z,1.10
2023-02-27T19:33:33.555Z,1.08
2023-02-27T19:38:38.083Z,1.07
2023-02-27T19:43:42.279Z,0.95
2023-02-27T19:48:45.291Z,0.91
2023-02-27T19:53:49.825Z,0.92
2023-02-27T19:58:54.107Z,0.92
2023-02-27T20:03:57.640Z,0.90
2023-02-27T20:09:02.136Z,0.84
2023-02-27T20:14:05.545Z,0.78
2023-02-27T20:19:10.784Z,0.69
2023-02-27T20:24:16.447Z,0.67
2023-02-27T20:29:23.109Z,0.74
2023-02-27T20:34:27.177Z,0.79
2023-02-27T20:39:31.619Z,0.95
2023-02-27T20:44:34.584Z,0.91
2023-02-27T20:49:37.652Z,0.80
2023-02-27T20:54:41.975Z,0.83
2023-02-27T20:59:44.889Z,0.95
2023-02-27T21:04:49.417Z,0.90
2023-02-27T21:09:53.817Z,0.89
2023-02-27T21:14:57.257Z,0.93
2023-02-27T21:20:00.160Z,0.89
2023-02-27T21:25:04.845Z,0.86
2023-02-27T21:30:11.097Z,0.84
2023-02-27T21:35:14.821Z,0.88
2023-02-27T21:40:19.358Z,0.81
2023-02-27T21:45:22.259Z,0.79
2023-02-27T21:50:25.167Z,0.85
2023-02-27T21:55:29.605Z,0.87
2023-02-27T22:00:33.563Z,0.84
2023-02-27T22:05:36.761Z,0.79
2023-02-27T22:10:42.888Z,0.83
2023-02-27T22:15:45.841Z,0.90
2023-02-27T22:20:49.093Z,0.83
2023-02-27T22:26:01.566Z,0.79
2023-02-27T22:31:09.498Z,0.89
2023-02-27T22:36:15.115Z,0.89
2023-02-27T22:41:21.229Z,0.72
2023-02-27T22:46:26.777Z,0.72
2023-02-27T22:51:30.585Z,0.71
2023-02-27T22:56:36.483Z,0.72
2023-02-27T23:01:39.538Z,0.68
2023-02-27T23:06:42.969Z,0.77
2023-02-27T23:11:47.734Z,0.67
2023-02-27T23:16:51.446Z,0.66
2023-02-27T23:21:54.359Z,0.69
2023-02-27T23:27:00.227Z,0.65
2023-02-27T23:32:03.191Z,0.73
2023-02-27T23:37:06.509Z,0.72
2023-02-27T23:42:10.918Z,0.75
2023-02-27T23:47:31.280Z,0.68
2023-02-27T23:52:34.164Z,0.63
2023-02-27T23:57:38.410Z,0.62
